Time;durP1;ratioP1;P1;durP2;ratioP2;P2;SDS_P1;SDS_P2;PMS_P1;PMS_P2;Temp;Humidity;BMP_temperature;BMP_pressure;BME280_temperature;BME280_humidity;BME280_pressure;Samples;Min_cycle;Max_cycle;Signal;HPM_P1;HPM_P2
2023/11/25 00:00:53;;;;;;;6.20;1.48;;;;;4.60;97803.00;;;;4917825;29;20048;-64
2023/11/25 00:03:20;;;;;;;3.97;1.30;;;;;4.60;97801.00;;;;4916146;29;20048;-61
2023/11/25 00:05:47;;;;;;;6.38;1.45;;;;;4.60;97804.00;;;;4915926;29;20047;-63
2023/11/25 00:08:15;;;;;;;5.40;1.20;;;;;4.50;97805.00;;;;4917149;29;20505;-64
2023/11/25 00:10:41;;;;;;;3.50;1.30;;;;;4.50;97798.00;;;;4915941;29;20071;-67
2023/11/25 00:13:08;;;;;;;4.45;1.25;;;;;4.50;97821.00;;;;4917126;29;20046;-65
2023/11/25 00:15:35;;;;;;;6.53;1.95;;;;;4.50;97826.00;;;;4916397;29;20514;-64
2023/11/25 00:18:03;;;;;;;6.38;1.42;;;;;4.50;97822.00;;;;4916195;29;20096;-64
2023/11/25 00:20:29;;;;;;;4.45;1.40;;;;;4.50;97820.00;;;;4917523;29;20104;-64
2023/11/25 00:22:56;;;;;;;5.97;1.60;;;;;4.50;97827.00;;;;4917123;29;20048;-65
2023/11/25 00:25:27;;;;;;;3.85;1.48;;;;;4.50;97835.00;;;;4916409;29;20494;-65
2023/11/25 00:27:53;;;;;;;3.40;1.00;;;;;4.40;97839.00;;;;4916101;29;20490;-64
2023/11/25 00:30:20;;;;;;;9.95;1.30;;;;;4.40;97839.00;;;;4931425;29;20441;-64
2023/11/25 00:32:47;;;;;;;4.78;1.58;;;;;4.40;97841.00;;;;4931308;29;20056;-64
2023/11/25 00:35:14;;;;;;;6.35;1.85;;;;;4.40;97841.00;;;;4915149;29;20083;-65
2023/11/25 00:37:41;;;;;;;7.43;1.77;;;;;4.50;97844.00;;;;4916298;29;20414;-64
2023/11/25 00:40:15;;;;;;;4.82;1.55;;;;;4.40;97855.00;;;;4915705;29;20084;-64
2023/11/25 00:42:42;;;;;;;3.92;1.38;;;;;4.40;97850.00;;;;4916925;29;20071;-64
2023/11/25 00:45:10;;;;;;;6.13;1.30;;;;;4.40;97854.00;;;;4915952;29;20044;-62
2023/11/25 00:47:40;;;;;;;6.20;1.92;;;;;4.40;97861.00;;;;4915447;29;20100;-63
2023/11/25 00:50:11;;;;;;;5.45;1.55;;;;;4.40;97871.00;;;;4915252;29;20430;-60
2023/11/25 00:52:38;;;;;;;2.20;1.55;;;;;4.40;97878.00;;;;4916592;29;20112;-63
2023/11/25 00:55:06;;;;;;;7.35;1.38;;;;;4.50;97879.00;;;;4915963;29;20063;-63
2023/11/25 00:57:34;;;;;;;4.03;1.00;;;;;4.50;97880.00;;;;4916527;29;20055;-63
2023/11/25 01:00:00;;;;;;;4.97;1.23;;;;;4.40;97882.00;;;;4915197;29;20143;-62
2023/11/25 01:02:27;;;;;;;5.10;1.50;;;;;4.40;97888.00;;;;4916436;29;20461;-63
2023/11/25 01:04:55;;;;;;;3.53;1.17;;;;;4.50;97887.00;;;;4915851;29;20525;-63
2023/11/25 01:07:22;;;;;;;3.42;1.52;;;;;4.50;97898.00;;;;4916395;29;20048;-63
2023/11/25 01:09:49;;;;;;;6.53;1.88;;;;;4.60;97904.00;;;;4930934;29;20040;-61
2023/11/25 01:12:15;;;;;;;5.07;1.38;;;;;4.60;97898.00;;;;4914997;29;20098;-60
2023/11/25 01:14:42;;;;;;;4.90;1.77;;;;;4.60;97910.00;;;;4915756;29;20131;-61
2023/11/25 01:17:09;;;;;;;5.95;1.67;;;;;4.60;97909.00;;;;4915071;29;20056;-61
2023/11/25 01:19:36;;;;;;;3.83;1.55;;;;;4.60;97910.00;;;;4914968;29;20048;-60
2023/11/25 01:22:03;;;;;;;3.20;1.30;;;;;4.60;97920.00;;;;4916045;29;20048;-63
2023/11/25 01:24:30;;;;;;;5.30;1.23;;;;;4.60;97920.00;;;;4915855;29;20056;-59
2023/11/25 01:26:58;;;;;;;5.57;1.35;;;;;4.50;97932.00;;;;4914616;29;20056;-62
2023/11/25 01:29:24;;;;;;;5.45;1.20;;;;;4.60;97927.00;;;;4914790;29;20048;-60
2023/11/25 01:31:51;;;;;;;3.30;1.45;;;;;4.60;97931.00;;;;4914768;29;20052;-59
2023/11/25 01:34:18;;;;;;;6.28;1.40;;;;;4.70;97929.00;;;;4914193;29;20084;-60
2023/11/25 01:36:44;;;;;;;4.80;1.70;;;;;4.70;97938.00;;;;4914707;29;20040;-60
2023/11/25 01:39:11;;;;;;;5.55;1.75;;;;;4.70;97927.00;;;;4916023;29;20047;-61
2023/11/25 01:41:38;;;;;;;4.43;1.60;;;;;4.70;97936.00;;;;4914873;29;20079;-61
2023/11/25 01:44:05;;;;;;;6.32;1.52;;;;;4.70;97947.00;;;;4916474;29;20142;-60
2023/11/25 01:46:36;;;;;;;6.93;1.70;;;;;4.80;97947.00;;;;4920887;29;20466;-60
2023/11/25 01:49:08;;;;;;;2.83;1.20;;;;;4.90;97959.00;;;;4921214;29;20048;-61
2023/11/25 01:51:44;;;;;;;8.00;1.95;;;;;4.90;97953.00;;;;4921101;29;20107;-60
2023/11/25 01:54:16;;;;;;;6.95;1.98;;;;;4.90;97953.00;;;;4920514;29;20048;-60
2023/11/25 01:56:52;;;;;;;3.83;1.40;;;;;4.80;97955.00;;;;4920906;29;20048;-60
2023/11/25 01:59:22;;;;;;;7.30;1.95;;;;;4.80;97960.00;;;;4920955;29;20076;-61
2023/11/25 02:01:49;;;;;;;4.53;1.85;;;;;4.70;97961.00;;;;4920793;29;20056;-61
2023/11/25 02:04:17;;;;;;;4.00;1.10;;;;;4.70;97955.00;;;;4920254;29;20051;-62
2023/11/25 02:06:44;;;;;;;3.08;1.35;;;;;4.60;97960.00;;;;4920819;29;20127;-61
2023/11/25 02:09:11;;;;;;;7.40;1.52;;;;;4.60;97961.00;;;;4922079;29;20044;-61
2023/11/25 02:11:58;;;;;;;4.25;1.38;;;;;4.60;97965.00;;;;4920544;29;20052;-61
2023/11/25 02:14:26;;;;;;;2.53;1.48;;;;;4.50;97969.00;;;;4920009;29;20116;-62
2023/11/25 02:16:55;;;;;;;1.45;1.00;;;;;4.50;97965.00;;;;4920585;29;20142;-61
2023/11/25 02:19:26;;;;;;;5.25;1.25;;;;;4.40;97969.00;;;;4920492;29;20043;-61
2023/11/25 02:21:53;;;;;;;5.97;1.30;;;;;4.30;97976.00;;;;4936427;29;20076;-61
2023/11/25 02:24:22;;;;;;;4.18;1.45;;;;;4.30;97979.00;;;;4919925;29;20108;-61
2023/11/25 02:26:57;;;;;;;5.93;1.50;;;;;4.20;97983.00;;;;4920622;29;20047;-60
2023/11/25 02:29:24;;;;;;;3.63;1.10;;;;;4.20;97982.00;;;;4921732;29;20386;-60
2023/11/25 02:31:51;;;;;;;4.03;1.25;;;;;4.20;97975.00;;;;4922163;29;20050;-62
2023/11/25 02:34:20;;;;;;;4.40;1.65;;;;;4.20;97979.00;;;;4921108;29;20075;-60
2023/11/25 02:36:48;;;;;;;4.15;1.20;;;;;4.10;97982.00;;;;4921741;29;20091;-60
2023/11/25 02:39:17;;;;;;;6.93;1.63;;;;;4.20;97983.00;;;;4921549;29;20044;-61
2023/11/25 02:41:52;;;;;;;3.90;1.40;;;;;4.10;97990.00;;;;4920293;29;20056;-59
2023/11/25 02:44:19;;;;;;;5.88;1.30;;;;;4.00;97988.00;;;;4919725;29;20051;-61
2023/11/25 02:46:48;;;;;;;3.15;1.60;;;;;4.10;97995.00;;;;4920488;29;20078;-60
2023/11/25 02:49:15;;;;;;;6.18;1.55;;;;;4.00;97999.00;;;;4921598;29;20048;-60
2023/11/25 02:51:49;;;;;;;5.55;1.80;;;;;4.00;97993.00;;;;4921525;29;20044;-61
2023/11/25 02:54:19;;;;;;;4.30;1.73;;;;;4.00;98011.00;;;;4920834;29;20099;-61
2023/11/25 02:56:45;;;;;;;2.55;1.20;;;;;3.90;98007.00;;;;4916525;29;20059;-59
2023/11/25 02:59:12;;;;;;;4.70;1.63;;;;;3.90;98007.00;;;;4918650;29;20178;-61
2023/11/25 03:01:48;;;;;;;3.28;1.33;;;;;3.90;98005.00;;;;4918430;29;20408;-60
2023/11/25 03:04:16;;;;;;;4.40;1.30;;;;;3.80;97998.00;;;;4917838;29;20180;-61
2023/11/25 03:06:44;;;;;;;4.88;1.65;;;;;3.70;97994.00;;;;4918128;29;20051;-61
2023/11/25 03:09:13;;;;;;;3.47;1.25;;;;;3.70;97997.00;;;;4918458;29;20566;-60
2023/11/25 03:11:40;;;;;;;3.80;1.63;;;;;3.60;97997.00;;;;4916948;29;20664;-60
2023/11/25 03:14:07;;;;;;;3.13;1.15;;;;;3.60;97994.00;;;;4916449;29;20467;-61
2023/11/25 03:16:34;;;;;;;6.70;1.33;;;;;3.60;97990.00;;;;4918247;29;20111;-61
2023/11/25 03:19:01;;;;;;;4.68;1.98;;;;;3.60;98004.00;;;;4916910;29;20104;-62
2023/11/25 03:21:28;;;;;;;4.45;1.85;;;;;3.70;98007.00;;;;4916930;29;20555;-61
2023/11/25 03:23:56;;;;;;;6.35;1.20;;;;;3.70;98017.00;;;;4917688;29;20048;-61
2023/11/25 03:26:22;;;;;;;3.22;1.40;;;;;3.70;98026.00;;;;4917935;29;20100;-62
2023/11/25 03:28:49;;;;;;;7.07;1.40;;;;;3.70;98028.00;;;;4916791;29;20052;-61
2023/11/25 03:31:16;;;;;;;3.03;1.33;;;;;3.70;98033.00;;;;4918007;29;20052;-60
2023/11/25 03:33:43;;;;;;;2.70;1.05;;;;;3.70;98034.00;;;;4916178;29;20056;-61
2023/11/25 03:36:10;;;;;;;5.78;1.30;;;;;3.70;98028.00;;;;4917966;29;20044;-60
2023/11/25 03:38:39;;;;;;;4.13;1.20;;;;;3.70;98017.00;;;;4916966;29;20052;-61
2023/11/25 03:41:05;;;;;;;5.13;1.40;;;;;3.70;98017.00;;;;4917994;29;20071;-61
2023/11/25 03:43:32;;;;;;;2.35;1.38;;;;;3.70;98024.00;;;;4917545;29;20083;-60
2023/11/25 03:46:00;;;;;;;4.47;1.70;;;;;3.70;98021.00;;;;4916569;29;20054;-61
2023/11/25 03:48:28;;;;;;;4.50;1.40;;;;;3.60;98013.00;;;;4916408;29;20059;-61
2023/11/25 03:50:55;;;;;;;3.47;1.20;;;;;3.60;98031.00;;;;4920471;29;20068;-61
2023/11/25 03:53:22;;;;;;;7.30;2.00;;;;;3.60;98038.00;;;;4931792;29;20052;-63
2023/11/25 03:55:48;;;;;;;3.70;1.33;;;;;3.60;98038.00;;;;4933726;29;20044;-61
2023/11/25 03:58:15;;;;;;;13.02;2.17;;;;;3.60;98050.00;;;;4933752;29;20052;-61
2023/11/25 04:00:42;;;;;;;2.67;1.30;;;;;3.50;98041.00;;;;4933609;29;20044;-61
2023/11/25 04:03:08;;;;;;;2.97;1.48;;;;;3.30;98039.00;;;;4916542;29;20154;-62
2023/11/25 04:05:35;;;;;;;4.05;1.50;;;;;3.30;98034.00;;;;4932264;29;20134;-61
2023/11/25 04:08:02;;;;;;;2.85;1.80;;;;;3.30;98043.00;;;;4932315;29;20079;-62
2023/11/25 04:10:28;;;;;;;3.28;1.25;;;;;3.30;98039.00;;;;4933330;29;20044;-61
2023/11/25 04:12:56;;;;;;;4.25;1.65;;;;;3.30;98039.00;;;;4932938;29;20072;-61
2023/11/25 04:15:23;;;;;;;3.35;1.13;;;;;3.40;98040.00;;;;4923583;29;20074;-61
2023/11/25 04:17:50;;;;;;;4.28;1.90;;;;;3.40;98039.00;;;;4922638;29;20082;-63
2023/11/25 04:20:24;;;;;;;6.28;1.90;;;;;3.40;98048.00;;;;4925842;29;20127;-61
2023/11/25 04:22:50;;;;;;;5.90;1.55;;;;;3.40;98047.00;;;;4919581;29;20044;-62
2023/11/25 04:25:18;;;;;;;4.20;1.38;;;;;3.30;98050.00;;;;4922350;29;20537;-61
2023/11/25 04:27:47;;;;;;;6.68;1.55;;;;;3.30;98042.00;;;;4921809;29;20498;-61
2023/11/25 04:30:16;;;;;;;2.50;1.40;;;;;3.30;98031.00;;;;4920342;29;20082;-61
2023/11/25 04:32:44;;;;;;;6.93;2.60;;;;;3.30;98036.00;;;;4926040;29;20048;-61
2023/11/25 04:35:13;;;;;;;7.32;2.47;;;;;3.30;98036.00;;;;4931431;29;20052;-62
2023/11/25 04:37:41;;;;;;;6.28;2.53;;;;;3.30;98036.00;;;;4931322;29;20051;-61
2023/11/25 04:40:11;;;;;;;11.23;3.38;;;;;3.30;98041.00;;;;4932711;29;20104;-61
2023/11/25 04:42:42;;;;;;;4.47;2.08;;;;;3.20;98048.00;;;;4933333;29;20056;-61
2023/11/25 04:45:16;;;;;;;3.42;1.90;;;;;3.20;98055.00;;;;4927551;29;20083;-61
2023/11/25 04:47:44;;;;;;;6.90;2.17;;;;;3.20;98050.00;;;;4921884;29;20099;-60
2023/11/25 04:50:12;;;;;;;6.38;1.70;;;;;3.20;98040.00;;;;4917526;29;20076;-61
2023/11/25 04:52:39;;;;;;;6.28;1.48;;;;;3.10;98043.00;;;;4917056;29;20075;-61
2023/11/25 04:55:12;;;;;;;5.75;1.73;;;;;3.10;98048.00;;;;4915410;29;20103;-60
2023/11/25 04:57:39;;;;;;;3.33;1.30;;;;;3.10;98052.00;;;;4916958;29;20044;-61
2023/11/25 05:00:10;;;;;;;4.53;1.52;;;;;3.10;98048.00;;;;4917151;29;20044;-63
2023/11/25 05:02:38;;;;;;;6.38;2.00;;;;;3.10;98055.00;;;;4916947;29;20123;-61
2023/11/25 05:05:06;;;;;;;4.15;1.35;;;;;3.10;98053.00;;;;4916128;29;20117;-60
2023/11/25 05:07:34;;;;;;;9.10;3.10;;;;;3.10;98056.00;;;;4916381;29;20470;-59
2023/11/25 05:10:00;;;;;;;6.63;2.75;;;;;3.10;98049.00;;;;4916860;29;20051;-60
2023/11/25 05:12:28;;;;;;;2.47;1.25;;;;;3.10;98043.00;;;;4916691;29;20490;-60
2023/11/25 05:14:54;;;;;;;4.70;1.70;;;;;3.10;98053.00;;;;4915818;29;20569;-61
2023/11/25 05:17:21;;;;;;;5.18;1.63;;;;;3.10;98059.00;;;;4916508;29;20067;-61
2023/11/25 05:19:48;;;;;;;4.32;1.65;;;;;3.10;98063.00;;;;4914753;29;20119;-61
2023/11/25 05:22:15;;;;;;;3.78;1.67;;;;;3.10;98070.00;;;;4916507;29;20057;-61
2023/11/25 05:24:42;;;;;;;3.42;1.92;;;;;3.10;98060.00;;;;4915759;29;20058;-61
2023/11/25 05:27:09;;;;;;;3.70;1.25;;;;;3.10;98064.00;;;;4916411;29;20048;-61
2023/11/25 05:29:35;;;;;;;5.05;2.83;;;;;3.10;98068.00;;;;4916420;29;20490;-61
2023/11/25 05:32:03;;;;;;;5.10;1.90;;;;;3.10;98069.00;;;;4916193;29;20059;-62
2023/11/25 05:34:30;;;;;;;6.85;2.30;;;;;3.00;98067.00;;;;4915346;29;20048;-61
2023/11/25 05:36:57;;;;;;;4.68;1.20;;;;;3.00;98073.00;;;;4915958;29;20052;-61
2023/11/25 05:39:24;;;;;;;2.08;1.23;;;;;2.90;98061.00;;;;4915973;29;20152;-61
2023/11/25 05:41:51;;;;;;;6.80;1.63;;;;;2.90;98069.00;;;;4930604;29;20048;-61
2023/11/25 05:44:20;;;;;;;4.90;1.50;;;;;2.90;98074.00;;;;4914203;29;20059;-61
2023/11/25 05:46:47;;;;;;;4.50;1.52;;;;;2.90;98075.00;;;;4915919;29;20055;-60
2023/11/25 05:49:14;;;;;;;5.65;2.10;;;;;2.90;98077.00;;;;4916029;29;20054;-61
2023/11/25 05:51:43;;;;;;;5.78;2.10;;;;;2.90;98083.00;;;;4915987;29;20055;-60
2023/11/25 05:54:13;;;;;;;7.47;4.25;;;;;2.90;98077.00;;;;4915503;29;20091;-61
2023/11/25 05:56:40;;;;;;;9.52;3.92;;;;;2.90;98072.00;;;;4915993;29;20104;-61
2023/11/25 05:59:09;;;;;;;5.93;2.45;;;;;2.80;98091.00;;;;4916006;29;20044;-61
2023/11/25 06:01:37;;;;;;;4.40;1.58;;;;;2.80;98084.00;;;;4914907;29;20059;-60
2023/11/25 06:04:04;;;;;;;3.65;1.42;;;;;2.80;98083.00;;;;4915334;29;20440;-60
2023/11/25 06:06:31;;;;;;;8.85;1.98;;;;;2.70;98067.00;;;;4914530;29;20048;-61
2023/11/25 06:08:57;;;;;;;9.40;3.75;;;;;2.80;98080.00;;;;4915798;29;20565;-61
2023/11/25 06:11:26;;;;;;;7.43;2.97;;;;;2.80;98083.00;;;;4916332;29;20040;-60
2023/11/25 06:13:55;;;;;;;7.63;1.88;;;;;2.70;98076.00;;;;4915088;29;20052;-59
2023/11/25 06:16:24;;;;;;;7.28;1.90;;;;;2.50;98075.00;;;;4915524;29;20478;-60
2023/11/25 06:18:54;;;;;;;4.93;2.08;;;;;2.50;98074.00;;;;4915788;29;20122;-59
2023/11/25 06:21:21;;;;;;;8.27;1.80;;;;;2.50;98073.00;;;;4916552;29;20036;-62
2023/11/25 06:23:48;;;;;;;5.93;2.13;;;;;2.60;98079.00;;;;4914345;29;20083;-63
2023/11/25 06:26:15;;;;;;;2.13;1.20;;;;;2.70;98082.00;;;;4915890;29;20516;-61
2023/11/25 06:28:43;;;;;;;5.90;1.70;;;;;2.70;98067.00;;;;4915585;29;20127;-62
2023/11/25 06:31:14;;;;;;;4.88;2.75;;;;;2.70;98071.00;;;;4918137;29;20100;-62
2023/11/25 06:33:41;;;;;;;6.13;1.60;;;;;2.70;98073.00;;;;4918537;29;20471;-62
2023/11/25 06:36:08;;;;;;;6.25;1.88;;;;;2.70;98082.00;;;;4919439;29;20119;-62
2023/11/25 06:38:35;;;;;;;6.20;2.20;;;;;2.80;98097.00;;;;4920282;29;20044;-62
2023/11/25 06:41:02;;;;;;;7.32;1.85;;;;;2.60;98095.00;;;;4919017;29;20048;-63
2023/11/25 06:43:29;;;;;;;5.10;2.83;;;;;2.60;98092.00;;;;4916919;29;20048;-62
2023/11/25 06:45:56;;;;;;;9.32;2.78;;;;;2.60;98093.00;;;;4917720;29;20044;-62
2023/11/25 06:48:23;;;;;;;3.88;2.10;;;;;2.70;98093.00;;;;4933655;29;20044;-62
2023/11/25 06:50:50;;;;;;;7.18;2.47;;;;;2.70;98091.00;;;;4918858;29;20087;-62
2023/11/25 06:53:17;;;;;;;6.60;2.35;;;;;2.70;98086.00;;;;4918603;29;20054;-62
2023/11/25 06:55:45;;;;;;;4.00;1.95;;;;;2.80;98090.00;;;;4919272;29;20050;-62
2023/11/25 06:58:12;;;;;;;3.85;2.05;;;;;2.80;98086.00;;;;4918965;29;20079;-62
2023/11/25 07:00:42;;;;;;;5.25;1.90;;;;;2.90;98086.00;;;;4918990;29;20048;-62
2023/11/25 07:03:09;;;;;;;7.18;2.00;;;;;2.90;98086.00;;;;4918900;29;20052;-61
2023/11/25 07:05:37;;;;;;;7.32;1.85;;;;;2.90;98103.00;;;;4917883;29;20052;-62
2023/11/25 07:08:05;;;;;;;9.05;2.10;;;;;2.90;98102.00;;;;4917414;29;20086;-62
2023/11/25 07:10:35;;;;;;;2.97;1.85;;;;;2.90;98107.00;;;;4918351;29;20044;-62
2023/11/25 07:13:03;;;;;;;4.35;2.22;;;;;3.00;98107.00;;;;4918569;29;20124;-61
2023/11/25 07:15:30;;;;;;;4.20;2.80;;;;;3.00;98101.00;;;;4917668;29;20128;-62
2023/11/25 07:17:57;;;;;;;11.15;4.75;;;;;3.00;98096.00;;;;4918265;29;20048;-63
2023/11/25 07:20:25;;;;;;;5.82;2.10;;;;;3.00;98108.00;;;;4916961;29;20052;-62
2023/11/25 07:22:51;;;;;;;4.10;2.00;;;;;2.90;98106.00;;;;4918175;29;20138;-62
2023/11/25 07:25:18;;;;;;;8.50;4.53;;;;;2.80;98104.00;;;;4917551;29;20487;-62
2023/11/25 07:27:46;;;;;;;5.18;3.20;;;;;2.70;98104.00;;;;4918112;29;20566;-62
2023/11/25 07:30:15;;;;;;;8.77;3.28;;;;;2.90;98105.00;;;;4918135;29;20589;-60
2023/11/25 07:32:43;;;;;;;13.07;7.22;;;;;2.90;98103.00;;;;4918102;29;20055;-61
2023/11/25 07:35:11;;;;;;;18.50;8.57;;;;;3.00;98098.00;;;;4916176;29;20127;-60
2023/11/25 07:37:38;;;;;;;12.43;4.63;;;;;3.10;98088.00;;;;4916679;29;20147;-60
2023/11/25 07:40:11;;;;;;;8.88;3.33;;;;;3.30;98093.00;;;;4916656;29;20100;-60
2023/11/25 07:42:37;;;;;;;7.22;2.95;;;;;3.40;98095.00;;;;4917152;29;20209;-61
2023/11/25 07:45:09;;;;;;;9.93;2.67;;;;;3.50;98095.00;;;;4917067;29;20050;-62
2023/11/25 07:47:37;;;;;;;7.78;2.28;;;;;3.60;98105.00;;;;4917708;29;20051;-61
2023/11/25 07:50:05;;;;;;;10.20;2.55;;;;;3.60;98101.00;;;;4917488;29;20040;-62
2023/11/25 07:52:31;;;;;;;8.18;3.08;;;;;3.60;98103.00;;;;4916387;29;20044;-61
2023/11/25 07:54:58;;;;;;;9.30;3.05;;;;;3.80;98121.00;;;;4916975;29;20052;-62
2023/11/25 07:57:25;;;;;;;6.07;2.47;;;;;3.80;98114.00;;;;4917708;29;20127;-61
2023/11/25 07:59:51;;;;;;;10.82;3.28;;;;;3.90;98122.00;;;;4900588;29;20119;-61
2023/11/25 08:02:18;;;;;;;8.52;3.28;;;;;4.00;98127.00;;;;4916311;29;20553;-62
2023/11/25 08:04:45;;;;;;;8.85;3.30;;;;;4.00;98119.00;;;;4916683;29;20391;-61
2023/11/25 08:07:12;;;;;;;7.85;3.45;;;;;4.10;98137.00;;;;4917242;29;20044;-61
2023/11/25 08:09:38;;;;;;;9.98;3.92;;;;;4.10;98130.00;;;;4917352;29;20059;-61
2023/11/25 08:12:06;;;;;;;12.25;3.63;;;;;4.20;98146.00;;;;4917234;29;20453;-62
2023/11/25 08:14:33;;;;;;;8.75;3.13;;;;;4.20;98139.00;;;;4916745;29;20139;-61
2023/11/25 08:16:59;;;;;;;10.73;4.70;;;;;4.30;98137.00;;;;4917070;29;20051;-61
2023/11/25 08:19:26;;;;;;;7.25;3.42;;;;;4.30;98130.00;;;;4917160;29;20155;-61
2023/11/25 08:21:53;;;;;;;14.52;4.53;;;;;4.40;98132.00;;;;4917030;29;20044;-63
2023/11/25 08:24:19;;;;;;;13.32;4.43;;;;;4.50;98129.00;;;;4915355;29;20425;-61
2023/11/25 08:26:46;;;;;;;11.75;3.70;;;;;4.50;98128.00;;;;4916983;29;20425;-61
2023/11/25 08:29:13;;;;;;;12.75;3.80;;;;;4.60;98125.00;;;;4915711;29;20079;-60
2023/11/25 08:31:39;;;;;;;9.38;3.05;;;;;4.60;98118.00;;;;4915575;29;20048;-61
2023/11/25 08:34:09;;;;;;;14.93;3.33;;;;;4.60;98115.00;;;;4916300;29;20048;-61
2023/11/25 08:36:44;;;;;;;15.50;4.53;;;;;4.70;98116.00;;;;4916957;29;20055;-62
2023/11/25 08:39:13;;;;;;;10.73;3.78;;;;;4.70;98123.00;;;;4915595;29;20134;-61
2023/11/25 08:41:43;;;;;;;9.75;3.53;;;;;4.80;98117.00;;;;4916723;29;20071;-61
2023/11/25 08:44:13;;;;;;;10.98;3.25;;;;;4.90;98119.00;;;;4916130;29;20048;-61
2023/11/25 08:46:42;;;;;;;12.02;3.95;;;;;4.90;98115.00;;;;4916732;29;20048;-62
2023/11/25 08:49:10;;;;;;;7.30;2.78;;;;;4.90;98117.00;;;;4916610;29;20048;-61
2023/11/25 08:51:46;;;;;;;8.60;3.13;;;;;5.00;98118.00;;;;4916682;29;20044;-62
2023/11/25 08:54:13;;;;;;;12.85;3.25;;;;;5.00;98122.00;;;;4913863;29;20420;-61
2023/11/25 08:56:45;;;;;;;12.05;3.53;;;;;5.00;98123.00;;;;4916336;29;20063;-61
2023/11/25 08:59:17;;;;;;;10.00;3.15;;;;;5.00;98121.00;;;;4915162;29;20048;-62
2023/11/25 09:01:46;;;;;;;12.45;2.67;;;;;5.10;98120.00;;;;4916698;29;20048;-62
2023/11/25 09:04:19;;;;;;;12.00;2.90;;;;;5.10;98115.00;;;;4915858;29;20048;-62
2023/11/25 09:06:46;;;;;;;10.25;2.70;;;;;5.00;98124.00;;;;4917390;29;20079;-62
2023/11/25 09:09:15;;;;;;;7.75;2.28;;;;;5.00;98124.00;;;;4917184;29;20044;-62
2023/11/25 09:11:43;;;;;;;14.57;2.88;;;;;5.00;98108.00;;;;4916734;29;20100;-62
2023/11/25 09:14:09;;;;;;;12.13;2.97;;;;;5.00;98110.00;;;;4930752;29;20127;-62
2023/11/25 09:16:36;;;;;;;8.38;2.15;;;;;5.10;98125.00;;;;4916593;29;20044;-61
2023/11/25 09:19:03;;;;;;;12.35;3.20;;;;;5.20;98119.00;;;;4915581;29;20056;-62
2023/11/25 09:21:30;;;;;;;11.23;2.67;;;;;5.20;98122.00;;;;4916685;29;20043;-61
2023/11/25 09:23:58;;;;;;;11.23;2.97;;;;;5.20;98129.00;;;;4915720;29;20076;-62
2023/11/25 09:26:24;;;;;;;14.02;3.45;;;;;5.30;98143.00;;;;4916356;29;20052;-61
2023/11/25 09:28:52;;;;;;;13.32;3.20;;;;;5.40;98142.00;;;;4916157;29;20052;-61
2023/11/25 09:31:19;;;;;;;17.75;4.25;;;;;5.40;98151.00;;;;4916298;29;20067;-61
2023/11/25 09:33:47;;;;;;;14.73;5.10;;;;;5.40;98132.00;;;;4915668;29;20058;-61
2023/11/25 09:36:14;;;;;;;15.32;3.35;;;;;5.40;98135.00;;;;4915884;29;20084;-61
2023/11/25 09:38:40;;;;;;;7.97;3.10;;;;;5.40;98137.00;;;;4915997;29;20058;-61
2023/11/25 09:41:08;;;;;;;8.55;3.50;;;;;5.30;98136.00;;;;4915165;29;20404;-63
2023/11/25 09:43:36;;;;;;;16.85;4.28;;;;;5.20;98133.00;;;;4915195;29;20498;-62
2023/11/25 09:46:04;;;;;;;14.02;3.50;;;;;5.30;98129.00;;;;4915659;29;20071;-61
2023/11/25 09:48:31;;;;;;;12.40;3.72;;;;;5.20;98133.00;;;;4916431;29;20123;-62
2023/11/25 09:50:59;;;;;;;13.07;4.80;;;;;5.10;98135.00;;;;4915819;29;20044;-63
2023/11/25 09:53:28;;;;;;;15.82;6.95;;;;;5.10;98130.00;;;;4913970;29;20048;-61
2023/11/25 09:56:04;;;;;;;21.52;8.57;;;;;5.10;98137.00;;;;4915893;29;20126;-62
2023/11/25 09:58:35;;;;;;;15.35;6.43;;;;;5.10;98136.00;;;;4915871;29;20107;-62
2023/11/25 10:01:05;;;;;;;18.85;6.20;;;;;5.20;98129.00;;;;4915723;29;20051;-62
2023/11/25 10:03:34;;;;;;;16.05;3.85;;;;;5.30;98124.00;;;;4915082;29;20178;-63
2023/11/25 10:06:02;;;;;;;12.80;4.07;;;;;5.40;98125.00;;;;4918288;29;20052;-63
2023/11/25 10:08:29;;;;;;;15.00;3.72;;;;;5.40;98113.00;;;;4919447;29;20446;-63
2023/11/25 10:11:08;;;;;;;27.27;8.77;;;;;5.40;98122.00;;;;4919461;29;20048;-63
2023/11/25 10:13:37;;;;;;;21.55;5.85;;;;;5.40;98126.00;;;;4919015;29;20048;-62
2023/11/25 10:16:05;;;;;;;19.35;7.22;;;;;5.50;98114.00;;;;4919284;29;20055;-61
2023/11/25 10:18:35;;;;;;;31.98;10.27;;;;;5.50;98114.00;;;;4919316;29;20136;-64
2023/11/25 10:21:05;;;;;;;26.17;6.95;;;;;5.50;98120.00;;;;4919309;29;20470;-61
2023/11/25 10:23:36;;;;;;;24.98;6.72;;;;;5.40;98114.00;;;;4918785;29;20111;-62
2023/11/25 10:26:03;;;;;;;42.08;10.60;;;;;5.40;98115.00;;;;4919235;29;20048;-64
2023/11/25 10:28:36;;;;;;;35.60;11.70;;;;;5.40;98111.00;;;;4919123;29;20056;-61
2023/11/25 10:31:05;;;;;;;24.63;8.23;;;;;5.30;98107.00;;;;4919136;29;20072;-62
2023/11/25 10:33:33;;;;;;;22.45;7.38;;;;;5.30;98113.00;;;;4918423;29;20716;-63
2023/11/25 10:36:01;;;;;;;20.05;7.32;;;;;5.30;98098.00;;;;4917874;29;20071;-63
2023/11/25 10:38:29;;;;;;;31.58;9.98;;;;;5.30;98102.00;;;;4918973;29;20056;-62
2023/11/25 10:41:03;;;;;;;21.15;7.53;;;;;5.30;98096.00;;;;4933412;29;20099;-61
2023/11/25 10:43:31;;;;;;;20.73;5.40;;;;;5.20;98088.00;;;;4917016;29;20501;-63
2023/11/25 10:46:05;;;;;;;22.50;7.03;;;;;5.30;98081.00;;;;4917623;29;20104;-62
2023/11/25 10:48:32;;;;;;;;;;;;;5.40;98083.00;;;;4919275;29;20131;-62
2023/11/25 10:50:59;;;;;;;23.35;6.93;;;;;5.30;98076.00;;;;4918788;29;19922;-64
2023/11/25 10:53:30;;;;;;;16.48;5.00;;;;;5.30;98069.00;;;;4918035;29;20498;-61
2023/11/25 10:55:58;;;;;;;27.23;7.70;;;;;5.30;98066.00;;;;4918606;29;20114;-62
2023/11/25 10:58:27;;;;;;;13.18;5.68;;;;;5.40;98063.00;;;;4918719;29;20059;-63
2023/11/25 11:00:55;;;;;;;17.60;5.25;;;;;5.40;98056.00;;;;4918398;29;20048;-62
2023/11/25 11:03:36;;;;;;;15.48;5.40;;;;;5.60;98041.00;;;;4918196;29;20060;-65
2023/11/25 11:06:07;;;;;;;24.30;5.88;;;;;5.70;98036.00;;;;4917120;29;20090;-62
2023/11/25 11:08:38;;;;;;;10.32;4.25;;;;;5.80;98027.00;;;;4918303;29;20075;-63
2023/11/25 11:11:47;;;;;;;14.27;4.63;;;;;5.90;98029.00;;;;4918620;29;20442;-62
2023/11/25 11:14:15;;;;;;;9.82;4.03;;;;;5.90;98033.00;;;;4922095;29;20061;-63
2023/11/25 11:17:09;;;;;;;11.40;4.15;;;;;5.80;98035.00;;;;4917163;29;20048;-63
2023/11/25 11:19:42;;;;;;;13.18;3.95;;;;;5.70;98035.00;;;;4918531;29;20447;-63
2023/11/25 11:22:12;;;;;;;17.33;3.63;;;;;5.60;98029.00;;;;4917090;29;20040;-63
2023/11/25 11:24:54;;;;;;;13.10;4.15;;;;;5.60;98038.00;;;;4917583;29;20044;-64
2023/11/25 11:27:30;;;;;;;9.25;3.22;;;;;5.50;98017.00;;;;4918611;29;20052;-63
2023/11/25 11:30:08;;;;;;;10.50;3.10;;;;;5.60;98032.00;;;;4916913;29;20063;-63
2023/11/25 11:32:35;;;;;;;8.18;3.60;;;;;5.60;98026.00;;;;4917992;29;20067;-63
2023/11/25 11:35:02;;;;;;;12.82;4.25;;;;;5.60;98017.00;;;;4931954;29;20048;-64
2023/11/25 11:37:40;;;;;;;9.35;3.72;;;;;5.60;98022.00;;;;4918033;29;20056;-63
2023/11/25 11:40:07;;;;;;;9.27;4.03;;;;;5.60;98009.00;;;;4917196;29;20055;-63
2023/11/25 11:42:34;;;;;;;7.97;3.72;;;;;5.60;98008.00;;;;4918187;29;20079;-63
2023/11/25 11:47:44;;;;;;;10.95;4.07;;;;;5.80;98026.00;;;;4918342;29;20044;-64
2023/11/25 11:50:16;;;;;;;10.65;4.15;;;;;5.80;98024.00;;;;4916797;29;20135;-63
2023/11/25 11:53:12;;;;;;;11.55;3.90;;;;;6.10;98008.00;;;;4916440;29;20044;-64
2023/11/25 11:55:55;;;;;;;10.23;3.80;;;;;6.20;98024.00;;;;4917175;29;20050;-65
2023/11/25 11:58:25;;;;;;;11.60;3.88;;;;;6.20;98010.00;;;;4916422;29;20520;-64
2023/11/25 12:01:01;;;;;;;11.13;4.13;;;;;6.20;98010.00;;;;4916287;29;20059;-64
2023/11/25 12:03:30;;;;;;;14.30;3.67;;;;;6.20;98010.00;;;;4915450;29;20068;-63
2023/11/25 12:05:57;;;;;;;14.48;4.50;;;;;6.20;98005.00;;;;4916216;29;20418;-64
2023/11/25 12:08:24;;;;;;;10.82;3.72;;;;;6.20;97997.00;;;;4916189;29;20048;-63
2023/11/25 12:10:51;;;;;;;9.93;3.65;;;;;6.30;97998.00;;;;4900393;29;20059;-64
2023/11/25 12:13:29;;;;;;;8.65;3.42;;;;;6.30;97994.00;;;;4915884;29;20563;-64
2023/11/25 12:16:03;;;;;;;11.93;4.60;;;;;6.20;98000.00;;;;4917185;29;20096;-64
2023/11/25 12:18:31;;;;;;;14.53;4.30;;;;;6.20;98000.00;;;;4916232;29;20437;-63
2023/11/25 12:21:04;;;;;;;11.30;3.92;;;;;6.20;98002.00;;;;4915816;29;20482;-64
2023/11/25 12:23:32;;;;;;;16.48;5.47;;;;;6.20;97992.00;;;;4916698;29;20048;-64
2023/11/25 12:26:21;;;;;;;10.95;4.03;;;;;6.10;97987.00;;;;4916185;29;20083;-63
2023/11/25 12:28:48;;;;;;;11.45;4.05;;;;;6.20;97981.00;;;;4917023;29;20059;-63
2023/11/25 12:31:15;;;;;;;14.90;4.70;;;;;6.30;97986.00;;;;4915728;29;20036;-63
2023/11/25 12:33:42;;;;;;;8.85;3.80;;;;;6.40;97978.00;;;;4916798;29;20079;-63